sensor_id;sensor_type;location;lat;lon;timestamp;pressure;altitude;pressure_sealevel;temperature;humidity
10518;BME280;5307;42.548;22.968;2023-04-15T00:01:50;93135.38;;;6.63;100.00
10518;BME280;5307;42.548;22.968;2023-04-15T00:04:17;93128.13;;;6.81;100.00
10518;BME280;5307;42.548;22.968;2023-04-15T00:06:49;93137.09;;;6.91;100.00
10518;BME280;5307;42.548;22.968;2023-04-15T00:09:17;93141.63;;;6.94;100.00
10518;BME280;5307;42.548;22.968;2023-04-15T00:11:44;93132.78;;;7.03;100.00
10518;BME280;5307;42.548;22.968;2023-04-15T00:14:11;93131.31;;;6.67;100.00
10518;BME280;5307;42.548;22.968;2023-04-15T00:16:38;93137.16;;;7.00;100.00
10518;BME280;5307;42.548;22.968;2023-04-15T00:19:07;93129.00;;;7.00;100.00
10518;BME280;5307;42.548;22.968;2023-04-15T00:21:34;93129.00;;;7.00;100.00
10518;BME280;5307;42.548;22.968;2023-04-15T00:24:00;93129.28;;;6.93;100.00
10518;BME280;5307;42.548;22.968;2023-04-15T00:26:28;93123.56;;;7.00;100.00
10518;BME280;5307;42.548;22.968;2023-04-15T00:28:54;93129.28;;;6.93;100.00
10518;BME280;5307;42.548;22.968;2023-04-15T00:31:21;93130.03;;;6.94;100.00
10518;BME280;5307;42.548;22.968;2023-04-15T00:33:48;93132.44;;;6.92;100.00
10518;BME280;5307;42.548;22.968;2023-04-15T00:36:16;93138.16;;;6.94;100.00
10518;BME280;5307;42.548;22.968;2023-04-15T00:38:43;93132.88;;;6.90;100.00
10518;BME280;5307;42.548;22.968;2023-04-15T00:41:10;93139.47;;;6.89;100.00
10518;BME280;5307;42.548;22.968;2023-04-15T00:43:37;93138.53;;;6.83;100.00
10518;BME280;5307;42.548;22.968;2023-04-15T00:46:05;93148.72;;;6.92;100.00
10518;BME280;5307;42.548;22.968;2023-04-15T00:48:32;93142.53;;;6.91;100.00
10518;BME280;5307;42.548;22.968;2023-04-15T00:50:59;93129.00;;;6.78;100.00
10518;BME280;5307;42.548;22.968;2023-04-15T00:53:27;93141.13;;;6.87;100.00
10518;BME280;5307;42.548;22.968;2023-04-15T00:55:54;93130.16;;;6.90;100.00
10518;BME280;5307;42.548;22.968;2023-04-15T00:58:22;93134.53;;;6.75;100.00
10518;BME280;5307;42.548;22.968;2023-04-15T01:00:49;93132.91;;;6.77;100.00
10518;BME280;5307;42.548;22.968;2023-04-15T01:03:18;93139.81;;;6.91;100.00
10518;BME280;5307;42.548;22.968;2023-04-15T01:05:45;93144.28;;;6.85;100.00
10518;BME280;5307;42.548;22.968;2023-04-15T01:08:12;93141.06;;;6.77;100.00
10518;BME280;5307;42.548;22.968;2023-04-15T01:10:40;93142.75;;;6.62;100.00
10518;BME280;5307;42.548;22.968;2023-04-15T01:13:08;93146.09;;;6.66;100.00
10518;BME280;5307;42.548;22.968;2023-04-15T01:15:35;93146.84;;;6.67;100.00
10518;BME280;5307;42.548;22.968;2023-04-15T01:18:02;93150.91;;;6.84;100.00
10518;BME280;5307;42.548;22.968;2023-04-15T01:20:29;93153.88;;;6.77;100.00
10518;BME280;5307;42.548;22.968;2023-04-15T01:22:56;93153.06;;;6.54;100.00
10518;BME280;5307;42.548;22.968;2023-04-15T01:25:30;93158.00;;;6.69;100.00
10518;BME280;5307;42.548;22.968;2023-04-15T01:27:58;93158.47;;;6.54;100.00
10518;BME280;5307;42.548;22.968;2023-04-15T01:30:25;93151.53;;;6.53;100.00
10518;BME280;5307;42.548;22.968;2023-04-15T01:32:52;93136.63;;;6.36;100.00
10518;BME280;5307;42.548;22.968;2023-04-15T01:35:19;93148.97;;;6.37;100.00
10518;BME280;5307;42.548;22.968;2023-04-15T01:37:47;93142.44;;;6.47;100.00
10518;BME280;5307;42.548;22.968;2023-04-15T01:40:14;93143.16;;;6.26;100.00
10518;BME280;5307;42.548;22.968;2023-04-15T01:42:48;93147.72;;;6.16;100.00
10518;BME280;5307;42.548;22.968;2023-04-15T01:45:24;93136.22;;;6.25;100.00
10518;BME280;5307;42.548;22.968;2023-04-15T01:47:51;93145.75;;;6.17;100.00
10518;BME280;5307;42.548;22.968;2023-04-15T01:50:19;93146.19;;;6.03;100.00
10518;BME280;5307;42.548;22.968;2023-04-15T01:52:46;93138.00;;;5.93;100.00
10518;BME280;5307;42.548;22.968;2023-04-15T01:55:13;93141.91;;;5.92;100.00
10518;BME280;5307;42.548;22.968;2023-04-15T01:57:39;93147.72;;;5.91;100.00
10518;BME280;5307;42.548;22.968;2023-04-15T02:00:09;93149.88;;;5.83;100.00
10518;BME280;5307;42.548;22.968;2023-04-15T02:02:35;93143.81;;;5.66;100.00
10518;BME280;5307;42.548;22.968;2023-04-15T02:05:03;93152.16;;;5.72;100.00
10518;BME280;5307;42.548;22.968;2023-04-15T02:07:31;93156.56;;;5.41;100.00
10518;BME280;5307;42.548;22.968;2023-04-15T02:09:57;93167.19;;;5.35;100.00
10518;BME280;5307;42.548;22.968;2023-04-15T02:12:25;93158.50;;;5.27;100.00
10518;BME280;5307;42.548;22.968;2023-04-15T02:14:52;93161.13;;;5.44;100.00
10518;BME280;5307;42.548;22.968;2023-04-15T02:17:20;93174.31;;;5.42;100.00
10518;BME280;5307;42.548;22.968;2023-04-15T02:19:47;93164.06;;;5.49;100.00
10518;BME280;5307;42.548;22.968;2023-04-15T02:22:14;93157.28;;;5.28;100.00
10518;BME280;5307;42.548;22.968;2023-04-15T02:24:43;93160.75;;;5.29;100.00
10518;BME280;5307;42.548;22.968;2023-04-15T02:27:14;93165.41;;;5.28;100.00
10518;BME280;5307;42.548;22.968;2023-04-15T02:29:42;93168.16;;;4.99;100.00
10518;BME280;5307;42.548;22.968;2023-04-15T02:32:11;93158.69;;;4.62;100.00
10518;BME280;5307;42.548;22.968;2023-04-15T02:34:39;93154.84;;;4.47;100.00
10518;BME280;5307;42.548;22.968;2023-04-15T02:37:07;93160.78;;;4.42;100.00
10518;BME280;5307;42.548;22.968;2023-04-15T02:39:34;93165.25;;;4.77;100.00
10518;BME280;5307;42.548;22.968;2023-04-15T02:42:01;93161.38;;;4.79;100.00
10518;BME280;5307;42.548;22.968;2023-04-15T02:44:28;93164.59;;;4.73;100.00
10518;BME280;5307;42.548;22.968;2023-04-15T02:46:56;93165.81;;;4.56;100.00
10518;BME280;5307;42.548;22.968;2023-04-15T02:49:23;93153.66;;;4.48;100.00
10518;BME280;5307;42.548;22.968;2023-04-15T02:51:52;93159.03;;;4.64;100.00
10518;BME280;5307;42.548;22.968;2023-04-15T02:54:20;93157.56;;;4.31;100.00
10518;BME280;5307;42.548;22.968;2023-04-15T02:56:48;93156.69;;;4.50;100.00
10518;BME280;5307;42.548;22.968;2023-04-15T02:59:15;93163.13;;;4.56;100.00
10518;BME280;5307;42.548;22.968;2023-04-15T03:01:42;93166.34;;;4.51;100.00
10518;BME280;5307;42.548;22.968;2023-04-15T03:04:08;93169.97;;;4.44;100.00
10518;BME280;5307;42.548;22.968;2023-04-15T03:06:35;93174.44;;;4.35;100.00
10518;BME280;5307;42.548;22.968;2023-04-15T03:09:04;93176.59;;;4.27;100.00
10518;BME280;5307;42.548;22.968;2023-04-15T03:11:31;93187.28;;;4.31;100.00
10518;BME280;5307;42.548;22.968;2023-04-15T03:13:58;93198.72;;;4.38;100.00
10518;BME280;5307;42.548;22.968;2023-04-15T03:16:25;93198.28;;;4.40;100.00
10518;BME280;5307;42.548;22.968;2023-04-15T03:18:52;93191.44;;;4.52;100.00
10518;BME280;5307;42.548;22.968;2023-04-15T03:21:18;93193.72;;;4.53;100.00
10518;BME280;5307;42.548;22.968;2023-04-15T03:23:46;93200.13;;;4.43;100.00
10518;BME280;5307;42.548;22.968;2023-04-15T03:26:25;93201.66;;;4.44;100.00
10518;BME280;5307;42.548;22.968;2023-04-15T03:28:53;93211.59;;;4.47;100.00
10518;BME280;5307;42.548;22.968;2023-04-15T03:31:19;93215.66;;;4.06;100.00
10518;BME280;5307;42.548;22.968;2023-04-15T03:33:47;93219.06;;;4.10;100.00
10518;BME280;5307;42.548;22.968;2023-04-15T03:36:15;93222.44;;;4.31;100.00
10518;BME280;5307;42.548;22.968;2023-04-15T03:38:42;93219.38;;;4.45;100.00
10518;BME280;5307;42.548;22.968;2023-04-15T03:41:10;93230.72;;;4.40;100.00
10518;BME280;5307;42.548;22.968;2023-04-15T03:43:38;93234.75;;;4.15;100.00
10518;BME280;5307;42.548;22.968;2023-04-15T03:46:04;93226.75;;;4.12;100.00
10518;BME280;5307;42.548;22.968;2023-04-15T03:48:31;93224.63;;;4.20;100.00
10518;BME280;5307;42.548;22.968;2023-04-15T03:50:58;93215.16;;;4.11;100.00
10518;BME280;5307;42.548;22.968;2023-04-15T03:53:25;93218.22;;;3.77;100.00
10518;BME280;5307;42.548;22.968;2023-04-15T03:55:52;93224.19;;;4.05;100.00
10518;BME280;5307;42.548;22.968;2023-04-15T03:58:18;93229.88;;;4.27;100.00
10518;BME280;5307;42.548;22.968;2023-04-15T04:00:46;93222.75;;;4.33;100.00
10518;BME280;5307;42.548;22.968;2023-04-15T04:03:13;93225.31;;;4.24;100.00
10518;BME280;5307;42.548;22.968;2023-04-15T04:05:40;93220.38;;;3.86;100.00
10518;BME280;5307;42.548;22.968;2023-04-15T04:08:08;93238.72;;;4.11;100.00
10518;BME280;5307;42.548;22.968;2023-04-15T04:10:38;93229.19;;;4.23;100.00
10518;BME280;5307;42.548;22.968;2023-04-15T04:13:05;93225.47;;;4.16;100.00
10518;BME280;5307;42.548;22.968;2023-04-15T04:15:31;93238.63;;;4.14;100.00
10518;BME280;5307;42.548;22.968;2023-04-15T04:18:01;93229.53;;;4.25;100.00
10518;BME280;5307;42.548;22.968;2023-04-15T04:20:28;93232.56;;;4.43;100.00
10518;BME280;5307;42.548;22.968;2023-04-15T04:22:56;93232.72;;;4.36;100.00
10518;BME280;5307;42.548;22.968;2023-04-15T04:25:23;93234.09;;;4.28;100.00
10518;BME280;5307;42.548;22.968;2023-04-15T04:27:50;93242.53;;;4.30;100.00
10518;BME280;5307;42.548;22.968;2023-04-15T04:30:18;93240.34;;;4.41;100.00
10518;BME280;5307;42.548;22.968;2023-04-15T04:32:45;93241.16;;;4.22;100.00
10518;BME280;5307;42.548;22.968;2023-04-15T04:35:14;93243.63;;;4.32;100.00
10518;BME280;5307;42.548;22.968;2023-04-15T04:37:41;93246.00;;;4.30;100.00
10518;BME280;5307;42.548;22.968;2023-04-15T04:40:15;93230.97;;;4.45;100.00
10518;BME280;5307;42.548;22.968;2023-04-15T04:42:42;93241.97;;;4.38;100.00
10518;BME280;5307;42.548;22.968;2023-04-15T04:45:09;93247.59;;;4.60;100.00
10518;BME280;5307;42.548;22.968;2023-04-15T04:47:36;93247.19;;;4.45;100.00
10518;BME280;5307;42.548;22.968;2023-04-15T04:50:03;93250.28;;;4.60;100.00
10518;BME280;5307;42.548;22.968;2023-04-15T04:52:32;93257.13;;;4.48;100.00
10518;BME280;5307;42.548;22.968;2023-04-15T04:54:59;93267.72;;;4.59;100.00
10518;BME280;5307;42.548;22.968;2023-04-15T04:57:26;93269.28;;;4.89;100.00
10518;BME280;5307;42.548;22.968;2023-04-15T04:59:52;93267.00;;;4.88;100.00
10518;BME280;5307;42.548;22.968;2023-04-15T05:02:19;93274.38;;;4.87;100.00
10518;BME280;5307;42.548;22.968;2023-04-15T05:04:46;93279.50;;;4.98;100.00
10518;BME280;5307;42.548;22.968;2023-04-15T05:07:14;93285.06;;;5.23;100.00
10518;BME280;5307;42.548;22.968;2023-04-15T05:09:42;93297.03;;;5.39;100.00
10518;BME280;5307;42.548;22.968;2023-04-15T05:12:09;93283.00;;;5.56;100.00
10518;BME280;5307;42.548;22.968;2023-04-15T05:14:39;93286.00;;;5.46;100.00
10518;BME280;5307;42.548;22.968;2023-04-15T05:17:06;93285.34;;;5.42;100.00
10518;BME280;5307;42.548;22.968;2023-04-15T05:19:33;93282.28;;;5.69;100.00
10518;BME280;5307;42.548;22.968;2023-04-15T05:22:00;93289.53;;;6.01;100.00
10518;BME280;5307;42.548;22.968;2023-04-15T05:24:27;93274.25;;;5.94;100.00
10518;BME280;5307;42.548;22.968;2023-04-15T05:26:55;93286.41;;;6.53;100.00
10518;BME280;5307;42.548;22.968;2023-04-15T05:29:22;93285.97;;;6.54;100.00
10518;BME280;5307;42.548;22.968;2023-04-15T05:31:49;93281.25;;;6.93;100.00
10518;BME280;5307;42.548;22.968;2023-04-15T05:34:16;93282.66;;;6.98;100.00
10518;BME280;5307;42.548;22.968;2023-04-15T05:36:42;93289.84;;;7.26;100.00
10518;BME280;5307;42.548;22.968;2023-04-15T05:39:09;93291.47;;;7.58;100.00
10518;BME280;5307;42.548;22.968;2023-04-15T05:41:36;93276.03;;;7.99;100.00
10518;BME280;5307;42.548;22.968;2023-04-15T05:44:04;93285.91;;;8.06;100.00
10518;BME280;5307;42.548;22.968;2023-04-15T05:46:31;93278.53;;;8.15;100.00
10518;BME280;5307;42.548;22.968;2023-04-15T05:48:58;93276.81;;;9.20;99.14
10518;BME280;5307;42.548;22.968;2023-04-15T05:51:25;93271.19;;;8.25;98.75
10518;BME280;5307;42.548;22.968;2023-04-15T05:53:52;93273.59;;;8.94;100.00
10518;BME280;5307;42.548;22.968;2023-04-15T05:56:18;93281.97;;;9.45;98.61
10518;BME280;5307;42.548;22.968;2023-04-15T05:58:45;93274.69;;;9.51;97.25
10518;BME280;5307;42.548;22.968;2023-04-15T06:01:13;93281.06;;;9.48;94.92
10518;BME280;5307;42.548;22.968;2023-04-15T06:03:41;93286.81;;;9.41;95.63
10518;BME280;5307;42.548;22.968;2023-04-15T06:06:09;93281.81;;;9.31;95.31
10518;BME280;5307;42.548;22.968;2023-04-15T06:08:36;93298.47;;;9.42;96.39
10518;BME280;5307;42.548;22.968;2023-04-15T06:11:03;93296.06;;;9.62;96.57
10518;BME280;5307;42.548;22.968;2023-04-15T06:13:30;93296.63;;;10.03;93.67
10518;BME280;5307;42.548;22.968;2023-04-15T06:15:58;93297.94;;;10.44;92.81
10518;BME280;5307;42.548;22.968;2023-04-15T06:18:27;93296.94;;;10.14;91.25
10518;BME280;5307;42.548;22.968;2023-04-15T06:20:53;93297.84;;;9.93;91.02
10518;BME280;5307;42.548;22.968;2023-04-15T06:23:20;93304.75;;;10.39;89.57
10518;BME280;5307;42.548;22.968;2023-04-15T06:25:47;93317.84;;;10.78;89.81
10518;BME280;5307;42.548;22.968;2023-04-15T06:28:14;93310.84;;;11.43;87.11
10518;BME280;5307;42.548;22.968;2023-04-15T06:30:41;93315.59;;;11.81;82.48
10518;BME280;5307;42.548;22.968;2023-04-15T06:36:50;93313.97;;;12.28;78.33
10518;BME280;5307;42.548;22.968;2023-04-15T06:39:19;93315.56;;;12.49;77.86
10518;BME280;5307;42.548;22.968;2023-04-15T06:41:45;93312.63;;;12.53;78.42
10518;BME280;5307;42.548;22.968;2023-04-15T06:44:12;93309.09;;;11.93;75.56
10518;BME280;5307;42.548;22.968;2023-04-15T06:46:39;93303.88;;;11.80;74.03
10518;BME280;5307;42.548;22.968;2023-04-15T06:49:06;93302.97;;;11.83;72.93
10518;BME280;5307;42.548;22.968;2023-04-15T06:51:34;93283.91;;;11.89;73.03
10518;BME280;5307;42.548;22.968;2023-04-15T06:54:02;93289.06;;;12.40;71.71
10518;BME280;5307;42.548;22.968;2023-04-15T06:56:30;93289.97;;;12.67;71.29
10518;BME280;5307;42.548;22.968;2023-04-15T06:58:57;93293.56;;;12.73;71.36
10518;BME280;5307;42.548;22.968;2023-04-15T07:01:24;93293.00;;;13.19;71.49
10518;BME280;5307;42.548;22.968;2023-04-15T07:03:51;93292.72;;;12.23;71.15
10518;BME280;5307;42.548;22.968;2023-04-15T07:06:18;93284.28;;;12.85;69.50
10518;BME280;5307;42.548;22.968;2023-04-15T07:08:46;93282.63;;;12.58;66.80
10518;BME280;5307;42.548;22.968;2023-04-15T07:11:14;93292.63;;;12.61;64.89
10518;BME280;5307;42.548;22.968;2023-04-15T07:13:41;93283.97;;;13.33;62.45
10518;BME280;5307;42.548;22.968;2023-04-15T07:16:08;93284.91;;;13.91;61.38
10518;BME280;5307;42.548;22.968;2023-04-15T07:18:35;93290.72;;;13.52;60.21
10518;BME280;5307;42.548;22.968;2023-04-15T07:21:02;93288.19;;;13.14;60.18
10518;BME280;5307;42.548;22.968;2023-04-15T07:23:29;93291.53;;;13.38;57.74
10518;BME280;5307;42.548;22.968;2023-04-15T07:25:56;93284.72;;;13.33;58.33
10518;BME280;5307;42.548;22.968;2023-04-15T07:28:24;93293.38;;;13.47;57.24
10518;BME280;5307;42.548;22.968;2023-04-15T07:30:51;93290.56;;;13.41;55.82
10518;BME280;5307;42.548;22.968;2023-04-15T07:33:18;93290.50;;;13.56;53.93
10518;BME280;5307;42.548;22.968;2023-04-15T07:35:44;93293.66;;;13.49;55.42
10518;BME280;5307;42.548;22.968;2023-04-15T07:38:11;93306.69;;;13.54;51.84
10518;BME280;5307;42.548;22.968;2023-04-15T07:40:38;93301.19;;;13.74;52.60
10518;BME280;5307;42.548;22.968;2023-04-15T07:43:06;93306.78;;;13.80;50.30
10518;BME280;5307;42.548;22.968;2023-04-15T07:45:35;93297.03;;;14.05;50.13
10518;BME280;5307;42.548;22.968;2023-04-15T07:48:02;93308.91;;;14.42;51.73
10518;BME280;5307;42.548;22.968;2023-04-15T07:50:31;93305.97;;;14.46;51.69
10518;BME280;5307;42.548;22.968;2023-04-15T07:52:58;93310.88;;;14.62;51.35
10518;BME280;5307;42.548;22.968;2023-04-15T07:55:25;93317.00;;;14.25;51.11
10518;BME280;5307;42.548;22.968;2023-04-15T07:57:51;93313.25;;;14.49;49.53
10518;BME280;5307;42.548;22.968;2023-04-15T08:00:18;93316.22;;;14.45;48.14
10518;BME280;5307;42.548;22.968;2023-04-15T08:02:46;93316.69;;;13.98;48.63
10518;BME280;5307;42.548;22.968;2023-04-15T08:05:14;93314.25;;;15.09;49.82
10518;BME280;5307;42.548;22.968;2023-04-15T08:07:41;93304.44;;;15.39;48.86
10518;BME280;5307;42.548;22.968;2023-04-15T08:10:07;93312.03;;;14.81;46.06
10518;BME280;5307;42.548;22.968;2023-04-15T08:12:35;93303.41;;;14.42;46.02
10518;BME280;5307;42.548;22.968;2023-04-15T08:15:02;93307.78;;;14.80;46.70
10518;BME280;5307;42.548;22.968;2023-04-15T08:17:29;93303.03;;;14.81;47.09
10518;BME280;5307;42.548;22.968;2023-04-15T08:19:57;93299.59;;;14.92;45.43
10518;BME280;5307;42.548;22.968;2023-04-15T08:22:24;93302.94;;;15.01;45.79
10518;BME280;5307;42.548;22.968;2023-04-15T08:24:52;93298.50;;;15.09;44.18
10518;BME280;5307;42.548;22.968;2023-04-15T08:27:18;93291.78;;;15.16;45.13
10518;BME280;5307;42.548;22.968;2023-04-15T08:29:45;93277.41;;;14.95;45.59
10518;BME280;5307;42.548;22.968;2023-04-15T08:32:12;93284.06;;;15.20;45.09
10518;BME280;5307;42.548;22.968;2023-04-15T08:34:39;93279.53;;;14.80;44.65
10518;BME280;5307;42.548;22.968;2023-04-15T08:37:07;93270.25;;;15.09;45.28
10518;BME280;5307;42.548;22.968;2023-04-15T08:39:34;93262.50;;;15.56;46.08
10518;BME280;5307;42.548;22.968;2023-04-15T08:42:02;93261.75;;;15.07;45.97
10518;BME280;5307;42.548;22.968;2023-04-15T08:44:33;93272.78;;;13.98;45.08
10518;BME280;5307;42.548;22.968;2023-04-15T08:47:01;93273.28;;;13.55;46.95
10518;BME280;5307;42.548;22.968;2023-04-15T08:49:31;93264.94;;;14.11;48.60
10518;BME280;5307;42.548;22.968;2023-04-15T08:51:58;93273.06;;;14.25;49.00
10518;BME280;5307;42.548;22.968;2023-04-15T08:54:27;93276.72;;;14.43;46.08
10518;BME280;5307;42.548;22.968;2023-04-15T08:56:56;93276.19;;;15.02;43.52
10518;BME280;5307;42.548;22.968;2023-04-15T08:59:24;93274.91;;;15.34;44.31
10518;BME280;5307;42.548;22.968;2023-04-15T09:01:51;93278.69;;;15.42;41.95
10518;BME280;5307;42.548;22.968;2023-04-15T09:04:19;93274.00;;;15.54;42.08
10518;BME280;5307;42.548;22.968;2023-04-15T09:06:46;93257.75;;;14.45;43.58
10518;BME280;5307;42.548;22.968;2023-04-15T09:09:13;93257.50;;;14.74;43.79
10518;BME280;5307;42.548;22.968;2023-04-15T09:11:41;93259.94;;;15.47;42.85
10518;BME280;5307;42.548;22.968;2023-04-15T09:14:08;93265.31;;;15.67;43.00
10518;BME280;5307;42.548;22.968;2023-04-15T09:16:56;93266.19;;;14.99;42.62
10518;BME280;5307;42.548;22.968;2023-04-15T09:19:23;93262.25;;;15.11;42.66
10518;BME280;5307;42.548;22.968;2023-04-15T09:21:51;93268.41;;;15.37;40.87
10518;BME280;5307;42.548;22.968;2023-04-15T09:24:19;93267.25;;;15.12;39.75
10518;BME280;5307;42.548;22.968;2023-04-15T09:26:47;93269.16;;;15.38;39.99
10518;BME280;5307;42.548;22.968;2023-04-15T09:29:17;93278.09;;;15.22;43.12
10518;BME280;5307;42.548;22.968;2023-04-15T09:31:44;93277.06;;;14.50;40.12
10518;BME280;5307;42.548;22.968;2023-04-15T09:34:11;93276.03;;;14.79;42.39
10518;BME280;5307;42.548;22.968;2023-04-15T09:36:52;93281.53;;;14.79;41.87
10518;BME280;5307;42.548;22.968;2023-04-15T09:39:19;93270.56;;;14.79;42.43
10518;BME280;5307;42.548;22.968;2023-04-15T09:42:04;93270.09;;;14.55;40.50
10518;BME280;5307;42.548;22.968;2023-04-15T09:44:32;93284.84;;;14.58;41.96
10518;BME280;5307;42.548;22.968;2023-04-15T09:46:59;93277.38;;;14.58;41.01
10518;BME280;5307;42.548;22.968;2023-04-15T09:49:26;93282.75;;;14.47;41.14
10518;BME280;5307;42.548;22.968;2023-04-15T09:51:57;93282.75;;;14.47;40.64
10518;BME280;5307;42.548;22.968;2023-04-15T09:54:24;93285.34;;;14.56;41.02
10518;BME280;5307;42.548;22.968;2023-04-15T09:56:52;93276.22;;;14.70;40.69
10518;BME280;5307;42.548;22.968;2023-04-15T09:59:19;93267.78;;;14.48;41.92
10518;BME280;5307;42.548;22.968;2023-04-15T10:01:46;93267.09;;;14.53;40.52
10518;BME280;5307;42.548;22.968;2023-04-15T10:04:13;93257.38;;;14.32;40.53
10518;BME280;5307;42.548;22.968;2023-04-15T10:06:40;93263.13;;;14.34;39.91
10518;BME280;5307;42.548;22.968;2023-04-15T10:09:07;93255.38;;;14.58;40.91
10518;BME280;5307;42.548;22.968;2023-04-15T10:11:34;93259.69;;;14.65;39.23
10518;BME280;5307;42.548;22.968;2023-04-15T10:14:03;93253.19;;;15.05;40.10
10518;BME280;5307;42.548;22.968;2023-04-15T10:16:34;93256.28;;;15.18;39.77
10518;BME280;5307;42.548;22.968;2023-04-15T10:19:02;93260.06;;;15.69;41.66
10518;BME280;5307;42.548;22.968;2023-04-15T10:21:32;93254.59;;;15.26;38.84
10518;BME280;5307;42.548;22.968;2023-04-15T10:24:00;93251.63;;;15.89;41.80
10518;BME280;5307;42.548;22.968;2023-04-15T10:26:30;93252.31;;;15.67;40.31
10518;BME280;5307;42.548;22.968;2023-04-15T10:28:57;93253.31;;;15.22;38.88
10518;BME280;5307;42.548;22.968;2023-04-15T10:31:27;93248.84;;;15.24;38.23
10518;BME280;5307;42.548;22.968;2023-04-15T10:33:55;93252.56;;;15.75;38.80
10518;BME280;5307;42.548;22.968;2023-04-15T10:36:23;93245.56;;;15.74;37.08
10518;BME280;5307;42.548;22.968;2023-04-15T10:38:50;93244.31;;;15.21;38.89
10518;BME280;5307;42.548;22.968;2023-04-15T10:41:19;93247.06;;;15.75;38.66
10518;BME280;5307;42.548;22.968;2023-04-15T10:43:50;93227.50;;;15.62;37.26
10518;BME280;5307;42.548;22.968;2023-04-15T10:46:22;93238.13;;;16.02;38.88
10518;BME280;5307;42.548;22.968;2023-04-15T10:48:52;93238.69;;;16.23;37.43
10518;BME280;5307;42.548;22.968;2023-04-15T10:51:27;93235.91;;;16.18;37.51
10518;BME280;5307;42.548;22.968;2023-04-15T10:53:56;93237.94;;;16.45;37.46
10518;BME280;5307;42.548;22.968;2023-04-15T10:56:23;93232.72;;;16.81;40.24
10518;BME280;5307;42.548;22.968;2023-04-15T10:58:50;93232.94;;;16.55;36.60
10518;BME280;5307;42.548;22.968;2023-04-15T11:01:18;93229.19;;;16.41;37.62
10518;BME280;5307;42.548;22.968;2023-04-15T11:03:47;93232.22;;;16.66;36.33
10518;BME280;5307;42.548;22.968;2023-04-15T11:06:16;93223.94;;;16.49;38.00
10518;BME280;5307;42.548;22.968;2023-04-15T11:08:54;93228.72;;;16.71;38.28
10518;BME280;5307;42.548;22.968;2023-04-15T11:11:25;93224.97;;;16.68;37.58
10518;BME280;5307;42.548;22.968;2023-04-15T11:14:14;93225.94;;;16.87;39.52
10518;BME280;5307;42.548;22.968;2023-04-15T11:16:42;93213.44;;;16.70;39.00
10518;BME280;5307;42.548;22.968;2023-04-15T11:19:09;93219.09;;;15.93;35.66
10518;BME280;5307;42.548;22.968;2023-04-15T11:21:38;93236.19;;;16.20;36.19
10518;BME280;5307;42.548;22.968;2023-04-15T11:24:05;93228.41;;;16.29;36.70
10518;BME280;5307;42.548;22.968;2023-04-15T11:26:32;93234.69;;;16.30;38.03
10518;BME280;5307;42.548;22.968;2023-04-15T11:28:58;93213.66;;;16.55;36.71
10518;BME280;5307;42.548;22.968;2023-04-15T11:31:26;93221.44;;;16.51;38.08
10518;BME280;5307;42.548;22.968;2023-04-15T11:33:55;93218.94;;;16.47;39.84
10518;BME280;5307;42.548;22.968;2023-04-15T11:36:24;93209.09;;;16.01;34.96
10518;BME280;5307;42.548;22.968;2023-04-15T11:38:54;93226.59;;;15.87;35.76
10518;BME280;5307;42.548;22.968;2023-04-15T11:41:23;93219.78;;;15.66;34.79
10518;BME280;5307;42.548;22.968;2023-04-15T11:43:50;93226.38;;;15.91;35.44
10518;BME280;5307;42.548;22.968;2023-04-15T11:46:28;93222.97;;;15.59;35.87
10518;BME280;5307;42.548;22.968;2023-04-15T11:48:56;93215.91;;;16.34;37.47
10518;BME280;5307;42.548;22.968;2023-04-15T11:51:22;93216.91;;;16.31;36.22
10518;BME280;5307;42.548;22.968;2023-04-15T11:53:50;93215.66;;;16.21;33.97
10518;BME280;5307;42.548;22.968;2023-04-15T11:56:19;93215.81;;;15.84;33.41
10518;BME280;5307;42.548;22.968;2023-04-15T11:58:47;93221.53;;;15.69;33.98
10518;BME280;5307;42.548;22.968;2023-04-15T12:01:36;93223.63;;;15.96;34.56
10518;BME280;5307;42.548;22.968;2023-04-15T12:04:10;93204.34;;;15.91;33.50
10518;BME280;5307;42.548;22.968;2023-04-15T12:06:37;93201.09;;;15.92;32.88
10518;BME280;5307;42.548;22.968;2023-04-15T12:09:08;93213.03;;;15.67;31.86
10518;BME280;5307;42.548;22.968;2023-04-15T12:11:39;93215.31;;;15.85;32.52
10518;BME280;5307;42.548;22.968;2023-04-15T12:14:14;93209.06;;;15.79;32.04
10518;BME280;5307;42.548;22.968;2023-04-15T12:16:43;93206.34;;;15.96;32.25
10518;BME280;5307;42.548;22.968;2023-04-15T12:19:11;93219.91;;;16.22;34.06
10518;BME280;5307;42.548;22.968;2023-04-15T12:21:40;93215.09;;;16.00;33.16
10518;BME280;5307;42.548;22.968;2023-04-15T12:24:08;93212.88;;;16.32;34.78
10518;BME280;5307;42.548;22.968;2023-04-15T12:26:43;93224.38;;;16.02;32.20
10518;BME280;5307;42.548;22.968;2023-04-15T12:29:11;93219.84;;;15.94;32.00
10518;BME280;5307;42.548;22.968;2023-04-15T12:31:46;93222.38;;;16.09;32.08
10518;BME280;5307;42.548;22.968;2023-04-15T12:34:15;93219.88;;;16.05;30.88
10518;BME280;5307;42.548;22.968;2023-04-15T12:36:42;93218.91;;;16.19;30.67
10518;BME280;5307;42.548;22.968;2023-04-15T12:39:09;93224.28;;;15.69;29.80
10518;BME280;5307;42.548;22.968;2023-04-15T12:41:35;93225.66;;;16.24;31.71
10518;BME280;5307;42.548;22.968;2023-04-15T12:44:04;93221.38;;;16.12;30.72
10518;BME280;5307;42.548;22.968;2023-04-15T12:46:31;93215.53;;;15.70;31.03
10518;BME280;5307;42.548;22.968;2023-04-15T12:48:57;93222.31;;;15.81;32.92
10518;BME280;5307;42.548;22.968;2023-04-15T12:51:24;93209.53;;;15.72;33.76
10518;BME280;5307;42.548;22.968;2023-04-15T12:53:51;93225.28;;;15.71;32.54
10518;BME280;5307;42.548;22.968;2023-04-15T12:56:18;93219.81;;;15.77;32.28
10518;BME280;5307;42.548;22.968;2023-04-15T12:58:45;93223.63;;;15.96;30.63
10518;BME280;5307;42.548;22.968;2023-04-15T13:01:13;93214.34;;;15.94;31.39
10518;BME280;5307;42.548;22.968;2023-04-15T13:03:40;93217.06;;;15.88;29.86
10518;BME280;5307;42.548;22.968;2023-04-15T13:06:07;93218.34;;;15.93;30.47
10518;BME280;5307;42.548;22.968;2023-04-15T13:08:33;93219.88;;;16.05;30.62